sensor_id;sensor_type;location;lat;lon;timestamp;P1;durP1;ratioP1;P2;durP2;ratioP2
15667;SDS011;7934;48.710;9.024;2023-12-07T00:01:42;20.90;;;13.87;;
15667;SDS011;7934;48.710;9.024;2023-12-07T00:04:09;22.47;;;14.07;;
15667;SDS011;7934;48.710;9.024;2023-12-07T00:06:36;22.87;;;14.33;;
15667;SDS011;7934;48.710;9.024;2023-12-07T00:09:05;27.33;;;13.87;;
15667;SDS011;7934;48.710;9.024;2023-12-07T00:11:32;23.27;;;14.40;;
15667;SDS011;7934;48.710;9.024;2023-12-07T00:13:59;20.03;;;13.70;;
15667;SDS011;7934;48.710;9.024;2023-12-07T00:16:27;23.13;;;14.47;;
15667;SDS011;7934;48.710;9.024;2023-12-07T00:18:54;19.67;;;14.17;;
15667;SDS011;7934;48.710;9.024;2023-12-07T00:21:21;20.20;;;13.13;;
15667;SDS011;7934;48.710;9.024;2023-12-07T00:23:49;21.83;;;13.70;;
15667;SDS011;7934;48.710;9.024;2023-12-07T00:26:17;21.63;;;13.73;;
15667;SDS011;7934;48.710;9.024;2023-12-07T00:28:44;19.57;;;13.50;;
15667;SDS011;7934;48.710;9.024;2023-12-07T00:31:11;20.47;;;12.70;;
15667;SDS011;7934;48.710;9.024;2023-12-07T00:33:39;21.23;;;13.57;;
15667;SDS011;7934;48.710;9.024;2023-12-07T00:36:07;18.77;;;13.57;;
15667;SDS011;7934;48.710;9.024;2023-12-07T00:38:34;19.57;;;12.07;;
15667;SDS011;7934;48.710;9.024;2023-12-07T00:41:02;19.17;;;13.10;;
15667;SDS011;7934;48.710;9.024;2023-12-07T00:43:30;22.00;;;14.20;;
15667;SDS011;7934;48.710;9.024;2023-12-07T00:45:57;26.37;;;13.90;;
15667;SDS011;7934;48.710;9.024;2023-12-07T00:48:25;24.53;;;14.10;;
15667;SDS011;7934;48.710;9.024;2023-12-07T00:50:52;23.17;;;13.67;;
15667;SDS011;7934;48.710;9.024;2023-12-07T00:53:19;22.97;;;12.57;;
15667;SDS011;7934;48.710;9.024;2023-12-07T00:55:46;21.23;;;13.70;;
15667;SDS011;7934;48.710;9.024;2023-12-07T00:58:14;22.63;;;13.87;;
15667;SDS011;7934;48.710;9.024;2023-12-07T01:00:42;22.97;;;13.07;;
15667;SDS011;7934;48.710;9.024;2023-12-07T01:03:09;20.43;;;13.07;;
15667;SDS011;7934;48.710;9.024;2023-12-07T01:05:37;21.77;;;13.67;;
15667;SDS011;7934;48.710;9.024;2023-12-07T01:08:04;18.17;;;12.93;;
15667;SDS011;7934;48.710;9.024;2023-12-07T01:10:31;28.03;;;17.37;;
15667;SDS011;7934;48.710;9.024;2023-12-07T01:12:58;44.10;;;22.90;;
15667;SDS011;7934;48.710;9.024;2023-12-07T01:15:26;35.57;;;21.07;;
15667;SDS011;7934;48.710;9.024;2023-12-07T01:17:54;39.90;;;24.10;;
15667;SDS011;7934;48.710;9.024;2023-12-07T01:20:21;42.50;;;28.23;;
15667;SDS011;7934;48.710;9.024;2023-12-07T01:22:49;44.23;;;27.17;;
15667;SDS011;7934;48.710;9.024;2023-12-07T01:25:16;55.88;;;39.65;;
15667;SDS011;7934;48.710;9.024;2023-12-07T01:27:46;51.03;;;33.22;;
15667;SDS011;7934;48.710;9.024;2023-12-07T01:30:13;51.20;;;28.83;;
15667;SDS011;7934;48.710;9.024;2023-12-07T01:32:41;44.33;;;25.73;;
15667;SDS011;7934;48.710;9.024;2023-12-07T01:35:09;41.10;;;25.20;;
15667;SDS011;7934;48.710;9.024;2023-12-07T01:37:36;38.17;;;24.83;;
15667;SDS011;7934;48.710;9.024;2023-12-07T01:40:04;41.03;;;25.87;;
15667;SDS011;7934;48.710;9.024;2023-12-07T01:42:35;43.60;;;26.60;;
15667;SDS011;7934;48.710;9.024;2023-12-07T01:45:02;47.40;;;26.23;;
15667;SDS011;7934;48.710;9.024;2023-12-07T01:47:29;48.87;;;27.07;;
15667;SDS011;7934;48.710;9.024;2023-12-07T01:49:57;53.43;;;28.70;;
15667;SDS011;7934;48.710;9.024;2023-12-07T01:52:25;54.33;;;28.87;;
15667;SDS011;7934;48.710;9.024;2023-12-07T01:54:53;53.03;;;30.03;;
15667;SDS011;7934;48.710;9.024;2023-12-07T01:57:20;62.50;;;30.20;;
15667;SDS011;7934;48.710;9.024;2023-12-07T01:59:48;45.67;;;27.03;;
15667;SDS011;7934;48.710;9.024;2023-12-07T02:02:16;49.87;;;27.13;;
15667;SDS011;7934;48.710;9.024;2023-12-07T02:04:43;38.97;;;20.80;;
15667;SDS011;7934;48.710;9.024;2023-12-07T02:07:10;48.73;;;25.10;;
15667;SDS011;7934;48.710;9.024;2023-12-07T02:09:39;29.83;;;18.87;;
15667;SDS011;7934;48.710;9.024;2023-12-07T02:12:07;38.33;;;21.20;;
15667;SDS011;7934;48.710;9.024;2023-12-07T02:14:34;36.33;;;19.63;;
15667;SDS011;7934;48.710;9.024;2023-12-07T02:17:03;30.37;;;17.20;;
15667;SDS011;7934;48.710;9.024;2023-12-07T02:19:42;34.33;;;19.90;;
15667;SDS011;7934;48.710;9.024;2023-12-07T02:22:14;39.93;;;20.60;;
15667;SDS011;7934;48.710;9.024;2023-12-07T02:24:47;35.73;;;18.70;;
15667;SDS011;7934;48.710;9.024;2023-12-07T02:27:16;29.00;;;17.50;;
15667;SDS011;7934;48.710;9.024;2023-12-07T02:29:43;23.63;;;15.17;;
15667;SDS011;7934;48.710;9.024;2023-12-07T02:32:10;21.10;;;16.13;;
15667;SDS011;7934;48.710;9.024;2023-12-07T02:34:37;28.03;;;16.60;;
15667;SDS011;7934;48.710;9.024;2023-12-07T02:37:04;32.73;;;16.67;;
15667;SDS011;7934;48.710;9.024;2023-12-07T02:39:32;38.23;;;20.83;;
15667;SDS011;7934;48.710;9.024;2023-12-07T02:41:59;40.47;;;20.27;;
15667;SDS011;7934;48.710;9.024;2023-12-07T02:44:28;40.27;;;20.30;;
15667;SDS011;7934;48.710;9.024;2023-12-07T02:46:56;34.23;;;18.83;;
15667;SDS011;7934;48.710;9.024;2023-12-07T02:49:25;39.10;;;18.93;;
15667;SDS011;7934;48.710;9.024;2023-12-07T02:51:52;34.27;;;17.73;;
15667;SDS011;7934;48.710;9.024;2023-12-07T02:54:19;30.43;;;17.27;;
15667;SDS011;7934;48.710;9.024;2023-12-07T02:56:47;36.10;;;17.00;;
15667;SDS011;7934;48.710;9.024;2023-12-07T02:59:15;30.87;;;16.77;;
15667;SDS011;7934;48.710;9.024;2023-12-07T03:01:43;31.87;;;15.97;;
15667;SDS011;7934;48.710;9.024;2023-12-07T03:04:10;34.27;;;16.87;;
15667;SDS011;7934;48.710;9.024;2023-12-07T03:06:38;34.83;;;15.87;;
15667;SDS011;7934;48.710;9.024;2023-12-07T03:09:05;30.87;;;15.73;;
15667;SDS011;7934;48.710;9.024;2023-12-07T03:11:32;34.37;;;16.10;;
15667;SDS011;7934;48.710;9.024;2023-12-07T03:13:59;33.40;;;16.70;;
15667;SDS011;7934;48.710;9.024;2023-12-07T03:16:26;28.07;;;14.53;;
15667;SDS011;7934;48.710;9.024;2023-12-07T03:18:55;37.47;;;15.30;;
15667;SDS011;7934;48.710;9.024;2023-12-07T03:21:22;30.23;;;15.33;;
15667;SDS011;7934;48.710;9.024;2023-12-07T03:23:49;31.47;;;15.60;;
15667;SDS011;7934;48.710;9.024;2023-12-07T03:26:17;27.33;;;14.57;;
15667;SDS011;7934;48.710;9.024;2023-12-07T03:28:44;27.37;;;15.07;;
15667;SDS011;7934;48.710;9.024;2023-12-07T03:31:11;29.10;;;14.63;;
15667;SDS011;7934;48.710;9.024;2023-12-07T03:33:40;24.53;;;13.50;;
15667;SDS011;7934;48.710;9.024;2023-12-07T03:36:10;23.43;;;13.33;;
15667;SDS011;7934;48.710;9.024;2023-12-07T03:38:37;24.50;;;12.53;;
15667;SDS011;7934;48.710;9.024;2023-12-07T03:41:05;23.30;;;12.80;;
15667;SDS011;7934;48.710;9.024;2023-12-07T03:43:32;21.50;;;12.57;;
15667;SDS011;7934;48.710;9.024;2023-12-07T03:45:59;23.30;;;12.10;;
15667;SDS011;7934;48.710;9.024;2023-12-07T03:48:26;27.60;;;13.23;;
15667;SDS011;7934;48.710;9.024;2023-12-07T03:50:53;24.03;;;13.77;;
15667;SDS011;7934;48.710;9.024;2023-12-07T03:53:22;23.50;;;12.10;;
15667;SDS011;7934;48.710;9.024;2023-12-07T03:55:49;25.30;;;12.97;;
15667;SDS011;7934;48.710;9.024;2023-12-07T03:58:16;25.47;;;12.80;;
15667;SDS011;7934;48.710;9.024;2023-12-07T04:00:43;25.53;;;12.10;;
15667;SDS011;7934;48.710;9.024;2023-12-07T04:03:11;20.97;;;11.70;;
15667;SDS011;7934;48.710;9.024;2023-12-07T04:05:38;16.57;;;9.77;;
15667;SDS011;7934;48.710;9.024;2023-12-07T04:08:05;20.03;;;11.20;;
15667;SDS011;7934;48.710;9.024;2023-12-07T04:10:34;18.93;;;10.40;;
15667;SDS011;7934;48.710;9.024;2023-12-07T04:13:02;18.23;;;11.27;;
15667;SDS011;7934;48.710;9.024;2023-12-07T04:15:29;16.47;;;10.07;;
15667;SDS011;7934;48.710;9.024;2023-12-07T04:17:56;21.07;;;10.93;;
15667;SDS011;7934;48.710;9.024;2023-12-07T04:20:23;22.83;;;12.37;;
15667;SDS011;7934;48.710;9.024;2023-12-07T04:22:50;23.97;;;11.60;;
15667;SDS011;7934;48.710;9.024;2023-12-07T04:25:18;24.63;;;12.60;;
15667;SDS011;7934;48.710;9.024;2023-12-07T04:27:46;23.57;;;12.63;;
15667;SDS011;7934;48.710;9.024;2023-12-07T04:30:14;21.30;;;11.27;;
15667;SDS011;7934;48.710;9.024;2023-12-07T04:32:41;21.83;;;12.33;;
15667;SDS011;7934;48.710;9.024;2023-12-07T04:35:08;19.37;;;11.40;;
15667;SDS011;7934;48.710;9.024;2023-12-07T04:37:35;19.23;;;11.93;;
15667;SDS011;7934;48.710;9.024;2023-12-07T04:40:02;18.93;;;10.80;;
15667;SDS011;7934;48.710;9.024;2023-12-07T04:42:30;22.63;;;10.47;;
15667;SDS011;7934;48.710;9.024;2023-12-07T04:44:59;18.13;;;11.27;;
15667;SDS011;7934;48.710;9.024;2023-12-07T04:47:26;19.20;;;11.20;;
15667;SDS011;7934;48.710;9.024;2023-12-07T04:49:53;18.97;;;11.93;;
15667;SDS011;7934;48.710;9.024;2023-12-07T04:52:20;18.77;;;11.00;;
15667;SDS011;7934;48.710;9.024;2023-12-07T04:54:47;20.23;;;11.13;;
15667;SDS011;7934;48.710;9.024;2023-12-07T04:57:15;16.93;;;10.10;;
15667;SDS011;7934;48.710;9.024;2023-12-07T04:59:42;18.53;;;10.70;;
15667;SDS011;7934;48.710;9.024;2023-12-07T05:02:13;16.93;;;10.33;;
15667;SDS011;7934;48.710;9.024;2023-12-07T05:04:40;23.60;;;11.50;;
15667;SDS011;7934;48.710;9.024;2023-12-07T05:07:07;18.50;;;11.23;;
15667;SDS011;7934;48.710;9.024;2023-12-07T05:09:35;20.70;;;11.53;;
15667;SDS011;7934;48.710;9.024;2023-12-07T05:12:03;23.37;;;11.27;;
15667;SDS011;7934;48.710;9.024;2023-12-07T05:14:30;16.90;;;9.93;;
15667;SDS011;7934;48.710;9.024;2023-12-07T05:16:57;22.03;;;11.27;;
15667;SDS011;7934;48.710;9.024;2023-12-07T05:19:26;19.10;;;10.40;;
15667;SDS011;7934;48.710;9.024;2023-12-07T05:21:53;21.50;;;12.00;;
15667;SDS011;7934;48.710;9.024;2023-12-07T05:24:21;26.53;;;13.03;;
15667;SDS011;7934;48.710;9.024;2023-12-07T05:26:48;28.00;;;14.13;;
15667;SDS011;7934;48.710;9.024;2023-12-07T05:29:15;23.30;;;12.67;;
15667;SDS011;7934;48.710;9.024;2023-12-07T05:31:42;21.60;;;11.90;;
15667;SDS011;7934;48.710;9.024;2023-12-07T05:34:09;23.83;;;11.70;;
15667;SDS011;7934;48.710;9.024;2023-12-07T05:36:38;26.13;;;11.70;;
15667;SDS011;7934;48.710;9.024;2023-12-07T05:39:05;21.03;;;10.57;;
15667;SDS011;7934;48.710;9.024;2023-12-07T05:41:33;16.70;;;9.73;;
15667;SDS011;7934;48.710;9.024;2023-12-07T05:44:00;17.73;;;9.97;;
15667;SDS011;7934;48.710;9.024;2023-12-07T05:46:28;20.97;;;10.83;;
15667;SDS011;7934;48.710;9.024;2023-12-07T05:48:56;17.77;;;10.53;;
15667;SDS011;7934;48.710;9.024;2023-12-07T05:51:23;24.40;;;10.60;;
15667;SDS011;7934;48.710;9.024;2023-12-07T05:53:52;22.40;;;11.10;;
15667;SDS011;7934;48.710;9.024;2023-12-07T05:56:19;16.73;;;9.63;;
15667;SDS011;7934;48.710;9.024;2023-12-07T05:58:47;17.80;;;10.80;;
15667;SDS011;7934;48.710;9.024;2023-12-07T06:01:16;22.17;;;11.37;;
15667;SDS011;7934;48.710;9.024;2023-12-07T06:03:43;20.50;;;10.40;;
15667;SDS011;7934;48.710;9.024;2023-12-07T06:06:11;21.50;;;11.50;;
15667;SDS011;7934;48.710;9.024;2023-12-07T06:08:38;20.63;;;12.13;;
15667;SDS011;7934;48.710;9.024;2023-12-07T06:11:07;25.03;;;11.63;;
15667;SDS011;7934;48.710;9.024;2023-12-07T06:13:34;24.60;;;12.33;;
15667;SDS011;7934;48.710;9.024;2023-12-07T06:16:01;20.70;;;11.00;;
15667;SDS011;7934;48.710;9.024;2023-12-07T06:18:29;19.67;;;10.70;;
15667;SDS011;7934;48.710;9.024;2023-12-07T06:20:56;22.13;;;11.90;;
15667;SDS011;7934;48.710;9.024;2023-12-07T06:23:23;24.10;;;12.23;;
15667;SDS011;7934;48.710;9.024;2023-12-07T06:25:50;19.30;;;10.67;;
15667;SDS011;7934;48.710;9.024;2023-12-07T06:28:19;21.13;;;12.10;;
15667;SDS011;7934;48.710;9.024;2023-12-07T06:30:46;21.97;;;12.37;;
15667;SDS011;7934;48.710;9.024;2023-12-07T06:33:13;24.83;;;11.77;;
15667;SDS011;7934;48.710;9.024;2023-12-07T06:35:40;22.00;;;11.27;;
15667;SDS011;7934;48.710;9.024;2023-12-07T06:38:08;21.67;;;12.43;;
15667;SDS011;7934;48.710;9.024;2023-12-07T06:40:35;21.33;;;12.33;;
15667;SDS011;7934;48.710;9.024;2023-12-07T06:43:02;26.37;;;12.57;;
15667;SDS011;7934;48.710;9.024;2023-12-07T06:45:31;24.13;;;12.03;;
15667;SDS011;7934;48.710;9.024;2023-12-07T06:48:15;27.93;;;12.60;;
15667;SDS011;7934;48.710;9.024;2023-12-07T06:50:42;21.73;;;11.87;;
15667;SDS011;7934;48.710;9.024;2023-12-07T06:53:09;24.43;;;12.03;;
15667;SDS011;7934;48.710;9.024;2023-12-07T06:55:37;19.90;;;11.40;;
15667;SDS011;7934;48.710;9.024;2023-12-07T06:58:04;23.00;;;11.67;;
15667;SDS011;7934;48.710;9.024;2023-12-07T07:00:32;27.90;;;12.63;;
15667;SDS011;7934;48.710;9.024;2023-12-07T07:03:01;24.27;;;13.07;;
15667;SDS011;7934;48.710;9.024;2023-12-07T07:05:31;23.33;;;12.33;;
15667;SDS011;7934;48.710;9.024;2023-12-07T07:07:58;23.90;;;12.00;;
15667;SDS011;7934;48.710;9.024;2023-12-07T07:10:26;28.23;;;13.13;;
15667;SDS011;7934;48.710;9.024;2023-12-07T07:12:53;27.13;;;11.67;;
15667;SDS011;7934;48.710;9.024;2023-12-07T07:15:20;20.93;;;12.30;;
15667;SDS011;7934;48.710;9.024;2023-12-07T07:17:50;24.70;;;13.30;;
15667;SDS011;7934;48.710;9.024;2023-12-07T07:20:18;19.87;;;12.17;;
15667;SDS011;7934;48.710;9.024;2023-12-07T07:22:45;25.93;;;13.90;;
15667;SDS011;7934;48.710;9.024;2023-12-07T07:25:13;32.27;;;13.33;;
15667;SDS011;7934;48.710;9.024;2023-12-07T07:27:41;54.93;;;20.77;;
15667;SDS011;7934;48.710;9.024;2023-12-07T07:30:08;48.03;;;19.03;;
15667;SDS011;7934;48.710;9.024;2023-12-07T07:32:36;42.53;;;18.63;;
15667;SDS011;7934;48.710;9.024;2023-12-07T07:35:05;43.73;;;19.53;;
15667;SDS011;7934;48.710;9.024;2023-12-07T07:37:32;43.53;;;18.67;;
15667;SDS011;7934;48.710;9.024;2023-12-07T07:40:00;67.27;;;19.97;;
15667;SDS011;7934;48.710;9.024;2023-12-07T07:42:31;69.77;;;21.07;;
15667;SDS011;7934;48.710;9.024;2023-12-07T07:44:59;66.53;;;20.80;;
15667;SDS011;7934;48.710;9.024;2023-12-07T07:47:26;40.60;;;18.30;;
15667;SDS011;7934;48.710;9.024;2023-12-07T07:49:53;29.00;;;15.37;;
15667;SDS011;7934;48.710;9.024;2023-12-07T07:52:22;28.40;;;16.00;;
15667;SDS011;7934;48.710;9.024;2023-12-07T07:54:49;29.90;;;15.07;;
15667;SDS011;7934;48.710;9.024;2023-12-07T07:57:19;35.30;;;14.53;;
15667;SDS011;7934;48.710;9.024;2023-12-07T07:59:47;21.23;;;12.30;;
15667;SDS011;7934;48.710;9.024;2023-12-07T08:02:14;17.50;;;10.23;;
15667;SDS011;7934;48.710;9.024;2023-12-07T08:04:42;20.60;;;10.03;;
15667;SDS011;7934;48.710;9.024;2023-12-07T08:07:09;15.70;;;10.00;;
15667;SDS011;7934;48.710;9.024;2023-12-07T08:09:38;12.50;;;9.17;;
15667;SDS011;7934;48.710;9.024;2023-12-07T08:12:06;14.03;;;9.97;;
15667;SDS011;7934;48.710;9.024;2023-12-07T08:14:34;10.90;;;7.83;;
15667;SDS011;7934;48.710;9.024;2023-12-07T08:17:02;14.60;;;8.87;;
15667;SDS011;7934;48.710;9.024;2023-12-07T08:19:30;12.17;;;8.87;;
15667;SDS011;7934;48.710;9.024;2023-12-07T08:21:57;12.73;;;8.57;;
15667;SDS011;7934;48.710;9.024;2023-12-07T08:24:25;14.53;;;8.23;;
15667;SDS011;7934;48.710;9.024;2023-12-07T08:26:53;13.77;;;8.57;;
15667;SDS011;7934;48.710;9.024;2023-12-07T08:29:20;11.77;;;8.10;;
15667;SDS011;7934;48.710;9.024;2023-12-07T08:31:47;10.18;;;9.13;;
15667;SDS011;7934;48.710;9.024;2023-12-07T08:34:17;9.93;;;7.87;;
15667;SDS011;7934;48.710;9.024;2023-12-07T08:36:45;13.23;;;8.60;;
15667;SDS011;7934;48.710;9.024;2023-12-07T08:39:12;11.47;;;7.10;;
15667;SDS011;7934;48.710;9.024;2023-12-07T08:41:39;8.87;;;7.97;;
15667;SDS011;7934;48.710;9.024;2023-12-07T08:44:08;9.17;;;8.27;;
15667;SDS011;7934;48.710;9.024;2023-12-07T08:46:36;12.23;;;8.17;;
15667;SDS011;7934;48.710;9.024;2023-12-07T08:49:03;10.47;;;8.20;;
15667;SDS011;7934;48.710;9.024;2023-12-07T08:51:31;13.00;;;8.93;;
15667;SDS011;7934;48.710;9.024;2023-12-07T08:53:58;13.87;;;8.67;;
15667;SDS011;7934;48.710;9.024;2023-12-07T08:56:25;20.23;;;9.40;;
15667;SDS011;7934;48.710;9.024;2023-12-07T08:58:52;17.13;;;9.43;;
15667;SDS011;7934;48.710;9.024;2023-12-07T09:01:22;16.37;;;8.73;;
15667;SDS011;7934;48.710;9.024;2023-12-07T09:03:49;13.00;;;9.07;;
15667;SDS011;7934;48.710;9.024;2023-12-07T09:06:16;9.30;;;7.73;;
15667;SDS011;7934;48.710;9.024;2023-12-07T09:08:43;12.77;;;8.63;;
15667;SDS011;7934;48.710;9.024;2023-12-07T09:11:10;13.00;;;8.20;;
15667;SDS011;7934;48.710;9.024;2023-12-07T09:13:37;15.07;;;9.20;;
15667;SDS011;7934;48.710;9.024;2023-12-07T09:16:06;10.80;;;8.83;;
15667;SDS011;7934;48.710;9.024;2023-12-07T09:18:34;11.83;;;8.70;;
15667;SDS011;7934;48.710;9.024;2023-12-07T09:21:01;15.47;;;8.87;;
15667;SDS011;7934;48.710;9.024;2023-12-07T09:23:29;11.73;;;8.63;;
15667;SDS011;7934;48.710;9.024;2023-12-07T09:25:56;14.37;;;9.43;;
15667;SDS011;7934;48.710;9.024;2023-12-07T09:28:28;11.13;;;8.67;;
15667;SDS011;7934;48.710;9.024;2023-12-07T09:30:55;15.02;;;11.15;;
15667;SDS011;7934;48.710;9.024;2023-12-07T09:33:23;12.50;;;9.13;;
15667;SDS011;7934;48.710;9.024;2023-12-07T09:35:53;13.43;;;10.67;;
15667;SDS011;7934;48.710;9.024;2023-12-07T09:38:20;11.80;;;8.70;;
15667;SDS011;7934;48.710;9.024;2023-12-07T09:40:51;10.70;;;8.80;;
15667;SDS011;7934;48.710;9.024;2023-12-07T09:43:19;15.45;;;10.20;;
15667;SDS011;7934;48.710;9.024;2023-12-07T09:45:46;12.70;;;11.20;;
15667;SDS011;7934;48.710;9.024;2023-12-07T09:48:15;12.80;;;9.70;;
15667;SDS011;7934;48.710;9.024;2023-12-07T09:50:43;12.50;;;9.17;;
15667;SDS011;7934;48.710;9.024;2023-12-07T09:53:12;12.25;;;8.63;;
15667;SDS011;7934;48.710;9.024;2023-12-07T09:55:39;11.63;;;8.50;;
15667;SDS011;7934;48.710;9.024;2023-12-07T09:58:06;9.80;;;7.70;;
15667;SDS011;7934;48.710;9.024;2023-12-07T10:00:33;12.27;;;7.70;;
15667;SDS011;7934;48.710;9.024;2023-12-07T10:03:00;10.13;;;6.57;;
15667;SDS011;7934;48.710;9.024;2023-12-07T10:05:29;7.03;;;5.50;;
15667;SDS011;7934;48.710;9.024;2023-12-07T10:07:58;7.87;;;5.90;;
15667;SDS011;7934;48.710;9.024;2023-12-07T10:10:26;7.28;;;5.80;;
15667;SDS011;7934;48.710;9.024;2023-12-07T10:12:54;6.97;;;4.53;;
15667;SDS011;7934;48.710;9.024;2023-12-07T10:15:22;5.93;;;4.03;;
15667;SDS011;7934;48.710;9.024;2023-12-07T10:17:50;7.27;;;4.80;;
15667;SDS011;7934;48.710;9.024;2023-12-07T10:20:18;8.50;;;4.67;;
15667;SDS011;7934;48.710;9.024;2023-12-07T10:22:48;12.40;;;5.10;;
15667;SDS011;7934;48.710;9.024;2023-12-07T10:25:16;4.07;;;3.33;;
15667;SDS011;7934;48.710;9.024;2023-12-07T10:27:49;8.17;;;3.33;;
15667;SDS011;7934;48.710;9.024;2023-12-07T10:30:16;2.90;;;2.70;;
15667;SDS011;7934;48.710;9.024;2023-12-07T10:32:50;7.17;;;2.60;;
15667;SDS011;7934;48.710;9.024;2023-12-07T10:35:18;4.67;;;3.07;;
15667;SDS011;7934;48.710;9.024;2023-12-07T10:37:45;4.13;;;3.57;;
15667;SDS011;7934;48.710;9.024;2023-12-07T10:40:12;5.90;;;3.10;;
15667;SDS011;7934;48.710;9.024;2023-12-07T10:42:40;3.55;;;3.25;;
15667;SDS011;7934;48.710;9.024;2023-12-07T10:45:11;3.07;;;2.87;;
15667;SDS011;7934;48.710;9.024;2023-12-07T10:47:40;3.77;;;2.47;;
15667;SDS011;7934;48.710;9.024;2023-12-07T10:50:10;4.60;;;3.10;;
15667;SDS011;7934;48.710;9.024;2023-12-07T10:52:39;3.13;;;2.87;;
15667;SDS011;7934;48.710;9.024;2023-12-07T10:55:10;3.43;;;3.10;;
15667;SDS011;7934;48.710;9.024;2023-12-07T10:57:39;4.17;;;3.50;;
15667;SDS011;7934;48.710;9.024;2023-12-07T11:00:07;5.17;;;4.30;;
15667;SDS011;7934;48.710;9.024;2023-12-07T11:02:36;5.43;;;3.80;;
15667;SDS011;7934;48.710;9.024;2023-12-07T11:05:03;6.90;;;4.27;;
15667;SDS011;7934;48.710;9.024;2023-12-07T11:07:33;3.77;;;3.47;;
15667;SDS011;7934;48.710;9.024;2023-12-07T11:10:07;6.07;;;3.83;;
15667;SDS011;7934;48.710;9.024;2023-12-07T11:12:38;4.27;;;3.87;;
15667;SDS011;7934;48.710;9.024;2023-12-07T11:15:10;5.43;;;3.93;;
15667;SDS011;7934;48.710;9.024;2023-12-07T11:17:49;6.07;;;4.13;;
15667;SDS011;7934;48.710;9.024;2023-12-07T11:20:20;5.27;;;3.80;;
15667;SDS011;7934;48.710;9.024;2023-12-07T11:22:47;4.03;;;3.63;;
15667;SDS011;7934;48.710;9.024;2023-12-07T11:25:15;4.73;;;3.87;;
15667;SDS011;7934;48.710;9.024;2023-12-07T11:27:45;4.07;;;3.70;;
15667;SDS011;7934;48.710;9.024;2023-12-07T11:30:13;3.73;;;3.33;;
15667;SDS011;7934;48.710;9.024;2023-12-07T11:32:41;7.70;;;3.87;;
15667;SDS011;7934;48.710;9.024;2023-12-07T11:35:12;4.80;;;3.57;;
15667;SDS011;7934;48.710;9.024;2023-12-07T11:40:22;4.67;;;3.30;;
15667;SDS011;7934;48.710;9.024;2023-12-07T11:42:52;3.57;;;3.30;;
15667;SDS011;7934;48.710;9.024;2023-12-07T11:48:08;3.07;;;2.83;;
15667;SDS011;7934;48.710;9.024;2023-12-07T11:50:37;3.53;;;2.87;;
15667;SDS011;7934;48.710;9.024;2023-12-07T11:53:21;4.93;;;3.17;;
15667;SDS011;7934;48.710;9.024;2023-12-07T11:55:49;3.93;;;3.23;;
15667;SDS011;7934;48.710;9.024;2023-12-07T11:58:16;3.93;;;3.07;;
15667;SDS011;7934;48.710;9.024;2023-12-07T12:00:43;7.10;;;3.53;;
15667;SDS011;7934;48.710;9.024;2023-12-07T12:03:11;2.83;;;2.63;;
15667;SDS011;7934;48.710;9.024;2023-12-07T12:05:40;3.70;;;3.00;;
15667;SDS011;7934;48.710;9.024;2023-12-07T12:08:08;3.23;;;2.67;;
15667;SDS011;7934;48.710;9.024;2023-12-07T12:10:35;3.70;;;2.53;;
15667;SDS011;7934;48.710;9.024;2023-12-07T12:13:02;3.43;;;2.13;;
15667;SDS011;7934;48.710;9.024;2023-12-07T12:15:29;2.40;;;2.20;;
15667;SDS011;7934;48.710;9.024;2023-12-07T12:17:57;4.73;;;2.87;;
15667;SDS011;7934;48.710;9.024;2023-12-07T12:20:24;5.40;;;3.00;;
15667;SDS011;7934;48.710;9.024;2023-12-07T12:22:53;3.17;;;2.77;;
15667;SDS011;7934;48.710;9.024;2023-12-07T12:25:20;5.23;;;2.90;;
15667;SDS011;7934;48.710;9.024;2023-12-07T12:27:50;4.00;;;3.07;;
15667;SDS011;7934;48.710;9.024;2023-12-07T12:30:17;2.73;;;2.33;;
15667;SDS011;7934;48.710;9.024;2023-12-07T12:32:45;5.33;;;2.73;;
15667;SDS011;7934;48.710;9.024;2023-12-07T12:35:13;2.70;;;2.50;;
15667;SDS011;7934;48.710;9.024;2023-12-07T12:37:40;3.00;;;2.53;;
15667;SDS011;7934;48.710;9.024;2023-12-07T12:40:10;8.20;;;2.73;;
15667;SDS011;7934;48.710;9.024;2023-12-07T12:42:37;4.93;;;2.93;;
15667;SDS011;7934;48.710;9.024;2023-12-07T12:45:05;2.73;;;2.53;;
15667;SDS011;7934;48.710;9.024;2023-12-07T12:47:35;5.50;;;2.77;;
15667;SDS011;7934;48.710;9.024;2023-12-07T12:50:03;4.87;;;2.73;;
15667;SDS011;7934;48.710;9.024;2023-12-07T12:52:30;4.17;;;2.63;;
15667;SDS011;7934;48.710;9.024;2023-12-07T12:54:57;3.37;;;3.10;;
15667;SDS011;7934;48.710;9.024;2023-12-07T12:57:26;3.37;;;2.87;;
15667;SDS011;7934;48.710;9.024;2023-12-07T12:59:53;3.93;;;2.80;;
15667;SDS011;7934;48.710;9.024;2023-12-07T13:02:22;3.33;;;3.03;;
15667;SDS011;7934;48.710;9.024;2023-12-07T13:04:49;3.73;;;3.10;;
15667;SDS011;7934;48.710;9.024;2023-12-07T13:07:16;2.73;;;2.53;;
15667;SDS011;7934;48.710;9.024;2023-12-07T13:09:43;2.87;;;2.63;;
15667;SDS011;7934;48.710;9.024;2023-12-07T13:12:10;4.32;;;2.90;;
15667;SDS011;7934;48.710;9.024;2023-12-07T13:14:39;5.17;;;2.70;;
15667;SDS011;7934;48.710;9.024;2023-12-07T13:17:06;2.63;;;2.50;;
15667;SDS011;7934;48.710;9.024;2023-12-07T13:19:33;3.03;;;2.60;;
15667;SDS011;7934;48.710;9.024;2023-12-07T13:22:02;4.63;;;2.87;;
15667;SDS011;7934;48.710;9.024;2023-12-07T13:24:31;2.80;;;2.60;;
15667;SDS011;7934;48.710;9.024;2023-12-07T13:26:58;2.80;;;2.57;;
15667;SDS011;7934;48.710;9.024;2023-12-07T13:29:26;3.97;;;3.13;;
15667;SDS011;7934;48.710;9.024;2023-12-07T13:31:55;5.67;;;2.33;;
15667;SDS011;7934;48.710;9.024;2023-12-07T13:34:23;7.03;;;2.83;;
15667;SDS011;7934;48.710;9.024;2023-12-07T13:36:54;3.80;;;2.40;;
15667;SDS011;7934;48.710;9.024;2023-12-07T13:39:24;3.33;;;2.80;;
15667;SDS011;7934;48.710;9.024;2023-12-07T13:41:54;6.43;;;3.27;;
15667;SDS011;7934;48.710;9.024;2023-12-07T13:44:21;6.57;;;2.80;;
15667;SDS011;7934;48.710;9.024;2023-12-07T13:46:49;4.03;;;2.80;;
15667;SDS011;7934;48.710;9.024;2023-12-07T13:49:20;9.10;;;3.33;;
15667;SDS011;7934;48.710;9.024;2023-12-07T13:51:47;4.73;;;3.27;;
15667;SDS011;7934;48.710;9.024;2023-12-07T13:54:14;7.30;;;3.60;;
15667;SDS011;7934;48.710;9.024;2023-12-07T13:56:41;5.30;;;3.30;;
15667;SDS011;7934;48.710;9.024;2023-12-07T13:59:09;3.47;;;3.17;;
15667;SDS011;7934;48.710;9.024;2023-12-07T14:01:38;4.33;;;2.83;;
15667;SDS011;7934;48.710;9.024;2023-12-07T14:04:05;2.23;;;1.93;;
15667;SDS011;7934;48.710;9.024;2023-12-07T14:06:34;6.47;;;2.97;;
15667;SDS011;7934;48.710;9.024;2023-12-07T14:09:02;3.03;;;2.57;;
15667;SDS011;7934;48.710;9.024;2023-12-07T14:11:30;2.83;;;2.63;;
15667;SDS011;7934;48.710;9.024;2023-12-07T14:13:57;4.30;;;2.90;;
15667;SDS011;7934;48.710;9.024;2023-12-07T14:16:24;5.70;;;3.47;;
15667;SDS011;7934;48.710;9.024;2023-12-07T14:18:53;3.40;;;2.97;;
15667;SDS011;7934;48.710;9.024;2023-12-07T14:21:21;4.77;;;3.07;;
15667;SDS011;7934;48.710;9.024;2023-12-07T14:23:51;4.10;;;3.17;;
15667;SDS011;7934;48.710;9.024;2023-12-07T14:26:20;5.13;;;3.73;;
15667;SDS011;7934;48.710;9.024;2023-12-07T14:28:47;6.23;;;2.90;;
15667;SDS011;7934;48.710;9.024;2023-12-07T14:31:14;9.73;;;3.70;;
15667;SDS011;7934;48.710;9.024;2023-12-07T14:33:42;6.20;;;3.10;;
15667;SDS011;7934;48.710;9.024;2023-12-07T14:36:10;6.87;;;3.50;;
15667;SDS011;7934;48.710;9.024;2023-12-07T14:38:39;8.77;;;3.70;;
15667;SDS011;7934;48.710;9.024;2023-12-07T14:41:09;8.07;;;3.50;;
15667;SDS011;7934;48.710;9.024;2023-12-07T14:43:37;7.80;;;3.60;;
15667;SDS011;7934;48.710;9.024;2023-12-07T14:46:05;9.20;;;3.70;;
15667;SDS011;7934;48.710;9.024;2023-12-07T14:48:33;9.30;;;3.37;;
15667;SDS011;7934;48.710;9.024;2023-12-07T14:51:01;6.83;;;3.20;;
15667;SDS011;7934;48.710;9.024;2023-12-07T14:53:30;9.70;;;3.97;;
15667;SDS011;7934;48.710;9.024;2023-12-07T14:56:01;13.60;;;3.87;;